createdAt,value
2023-04-18T00:00:06.897Z,98714.41
2023-04-18T00:02:40.579Z,98714.69
2023-04-18T00:05:12.842Z,98715.83
2023-04-18T00:07:41.488Z,98715.52
2023-04-18T00:10:12.806Z,98713.14
2023-04-18T00:12:41.382Z,98716.45
2023-04-18T00:15:10.889Z,98713.46
2023-04-18T00:17:40.108Z,98714.71
2023-04-18T00:20:12.841Z,98712.78
2023-04-18T00:22:42.899Z,98713.08
2023-04-18T00:25:11.649Z,98715.60
2023-04-18T00:27:40.071Z,98712.05
2023-04-18T00:30:09.198Z,98708.21
2023-04-18T00:32:39.868Z,98710.13
2023-04-18T00:35:11.099Z,98709.20
2023-04-18T00:37:39.705Z,98709.38
2023-04-18T00:40:09.299Z,98708.36
2023-04-18T00:42:37.781Z,98707.05
2023-04-18T00:45:07.384Z,98703.50
2023-04-18T00:47:36.494Z,98699.63
2023-04-18T00:50:05.980Z,98698.05
2023-04-18T00:52:36.179Z,98693.36
2023-04-18T00:55:06.658Z,98694.01
2023-04-18T00:57:36.444Z,98694.36
2023-04-18T01:00:09.941Z,98697.05
2023-04-18T01:02:39.830Z,98696.48
2023-04-18T01:05:08.952Z,98696.81
2023-04-18T01:07:40.884Z,98699.15
2023-04-18T01:10:10.546Z,98693.02
2023-04-18T01:12:39.611Z,98693.77
2023-04-18T01:15:08.386Z,98689.86
2023-04-18T01:17:38.693Z,98688.73
2023-04-18T01:20:11.104Z,98685.23
2023-04-18T01:22:41.246Z,98685.51
2023-04-18T01:25:10.838Z,98682.80
2023-04-18T01:27:39.202Z,98685.23
2023-04-18T01:30:11.454Z,98687.10
2023-04-18T01:32:40.271Z,98685.42
2023-04-18T01:35:09.338Z,98686.02
2023-04-18T01:37:37.957Z,98683.92
2023-04-18T01:40:07.344Z,98684.27
2023-04-18T01:42:35.873Z,98684.67
2023-04-18T01:45:07.840Z,98682.91
2023-04-18T01:47:36.260Z,98679.73
2023-04-18T01:50:05.441Z,98678.98
2023-04-18T01:52:34.045Z,98679.84
2023-04-18T01:55:06.307Z,98680.34
2023-04-18T01:57:36.870Z,98680.48
2023-04-18T02:00:06.439Z,98679.16
2023-04-18T02:02:43.214Z,98678.47
2023-04-18T02:05:11.736Z,98675.03
2023-04-18T02:07:41.414Z,98675.76
2023-04-18T02:10:11.107Z,98672.16
2023-04-18T02:12:39.506Z,98676.27
2023-04-18T02:15:08.797Z,98673.76
2023-04-18T02:17:38.088Z,98673.62
2023-04-18T02:20:08.344Z,98677.80
2023-04-18T02:22:40.586Z,98677.14
2023-04-18T02:25:11.953Z,98678.41
2023-04-18T02:27:40.714Z,98680.37
2023-04-18T02:30:09.539Z,98679.77
2023-04-18T02:32:41.601Z,98681.86
2023-04-18T02:35:12.685Z,98680.86
2023-04-18T02:37:41.412Z,98683.55
2023-04-18T02:40:10.642Z,98683.58
2023-04-18T02:42:39.382Z,98680.74
2023-04-18T02:45:08.604Z,98680.92
2023-04-18T02:47:47.361Z,98683.16
2023-04-18T02:50:19.908Z,98684.52
2023-04-18T02:52:48.258Z,98680.88
2023-04-18T02:55:18.385Z,98677.73
2023-04-18T02:57:47.263Z,98677.08
2023-04-18T03:00:44.861Z,98677.80
2023-04-18T03:03:39.216Z,98676.11
2023-04-18T03:06:23.133Z,98677.41
2023-04-18T03:08:51.943Z,98680.41
2023-04-18T03:11:23.115Z,98680.63
2023-04-18T03:13:51.569Z,98683.83
2023-04-18T03:16:20.188Z,98683.08
2023-04-18T03:18:49.859Z,98688.10
2023-04-18T03:21:18.340Z,98687.38
2023-04-18T03:31:30.131Z,98693.08
2023-04-18T03:33:58.660Z,98696.79
2023-04-18T03:36:29.089Z,98697.19
2023-04-18T03:38:57.709Z,98698.84
2023-04-18T03:41:26.251Z,98701.31
2023-04-18T03:43:56.376Z,98698.77
2023-04-18T03:46:24.745Z,98703.64
2023-04-18T03:48:54.380Z,98704.55
2023-04-18T03:51:22.775Z,98706.87
2023-04-18T03:53:51.326Z,98707.45
2023-04-18T03:56:19.700Z,98704.71
2023-04-18T03:58:52.522Z,98703.92
2023-04-18T04:01:21.995Z,98705.33
2023-04-18T04:03:52.363Z,98702.63
2023-04-18T04:06:21.203Z,98705.02
2023-04-18T04:08:49.691Z,98690.05
2023-04-18T04:11:22.265Z,98689.39
2023-04-18T04:13:51.511Z,98694.99
2023-04-18T04:16:22.509Z,98718.54
2023-04-18T04:18:51.828Z,98721.27
2023-04-18T04:21:21.923Z,98718.45
2023-04-18T04:23:52.754Z,98722.33
2023-04-18T04:26:27.867Z,98728.38
2023-04-18T04:29:03.804Z,98725.16
2023-04-18T04:31:33.490Z,98712.02
2023-04-18T04:34:01.928Z,98713.10
2023-04-18T04:36:30.797Z,98709.36
2023-04-18T04:38:59.755Z,98692.29
2023-04-18T04:41:33.675Z,98701.23
2023-04-18T04:44:02.312Z,98714.88
2023-04-18T04:46:34.166Z,98729.70
2023-04-18T04:49:05.097Z,98719.93
2023-04-18T04:51:44.425Z,98724.64
2023-04-18T04:54:12.944Z,98726.73
2023-04-18T04:56:41.644Z,98724.47
2023-04-18T04:59:12.866Z,98729.96
2023-04-18T05:01:43.391Z,98729.81
2023-04-18T05:04:12.887Z,98727.63
2023-04-18T05:06:41.820Z,98731.10
2023-04-18T05:09:10.618Z,98727.83
2023-04-18T05:11:40.543Z,98730.88
2023-04-18T05:14:08.717Z,98729.60
2023-04-18T05:16:37.487Z,98729.36
2023-04-18T05:19:08.837Z,98737.97
2023-04-18T05:21:38.143Z,98737.14
2023-04-18T05:24:06.543Z,98737.92
2023-04-18T05:26:35.159Z,98744.10
2023-04-18T05:29:03.524Z,98738.73
2023-04-18T05:31:32.497Z,98737.44
2023-04-18T05:34:00.886Z,98745.40
2023-04-18T05:36:35.715Z,98748.75
2023-04-18T05:39:04.405Z,98755.00
2023-04-18T05:41:35.249Z,98759.70
2023-04-18T05:44:05.786Z,98763.05
2023-04-18T05:46:35.048Z,98766.11
2023-04-18T05:49:05.890Z,98761.44
2023-04-18T05:51:34.697Z,98757.26
2023-04-18T05:54:03.350Z,98760.77
2023-04-18T05:56:32.164Z,98760.64
2023-04-18T05:59:00.527Z,98755.80
2023-04-18T06:01:29.021Z,98750.46
2023-04-18T06:03:57.494Z,98752.52
2023-04-18T06:06:26.167Z,98747.74
2023-04-18T06:08:54.432Z,98760.53
2023-04-18T06:11:23.350Z,98766.91
2023-04-18T06:20:52.845Z,98758.25
2023-04-18T06:23:21.095Z,98762.52
2023-04-18T06:25:48.220Z,98764.23
2023-04-18T06:28:17.264Z,98760.20
2023-04-18T06:30:45.289Z,98754.24
2023-04-18T06:33:12.429Z,98752.75
2023-04-18T06:35:42.654Z,98752.28
2023-04-18T06:38:11.100Z,98746.04
2023-04-18T06:40:38.658Z,98740.71
2023-04-18T06:43:06.033Z,98734.73
2023-04-18T06:45:36.586Z,98729.23
2023-04-18T06:48:27.391Z,98717.20
2023-04-18T06:50:54.411Z,98711.80
2023-04-18T06:53:22.391Z,98705.80
2023-04-18T06:55:49.302Z,98707.98
2023-04-18T06:58:17.708Z,98702.83
2023-04-18T07:00:48.418Z,98707.58
2023-04-18T07:03:15.779Z,98711.41
2023-04-18T07:05:43.408Z,98709.23
2023-04-18T07:08:11.126Z,98718.51
2023-04-18T07:10:38.175Z,98727.70
2023-04-18T07:13:05.803Z,98728.45
2023-04-18T07:15:38.199Z,98730.66
2023-04-18T07:18:05.388Z,98736.27
2023-04-18T07:20:32.545Z,98741.52
2023-04-18T07:23:02.692Z,98741.88
2023-04-18T07:25:52.344Z,98742.30
2023-04-18T07:28:20.540Z,98745.30
2023-04-18T07:30:48.459Z,98741.76
2023-04-18T07:33:17.190Z,98750.16
2023-04-18T07:35:45.328Z,98759.35
2023-04-18T07:38:12.459Z,98754.60
2023-04-18T07:40:39.274Z,98753.39
2023-04-18T07:43:06.308Z,98751.15
2023-04-18T07:45:37.689Z,98747.41
2023-04-18T07:48:06.188Z,98746.45
2023-04-18T07:50:33.824Z,98747.56
2023-04-18T07:53:12.034Z,98748.98
2023-04-18T07:55:38.977Z,98748.45
2023-04-18T07:58:06.486Z,98745.25
2023-04-18T08:00:33.541Z,98747.30
2023-04-18T08:03:00.883Z,98748.98
2023-04-18T08:05:29.914Z,98746.50
2023-04-18T08:08:02.622Z,98744.11
2023-04-18T08:10:29.579Z,98745.52
2023-04-18T08:12:56.784Z,98747.00
2023-04-18T08:15:23.913Z,98745.10
2023-04-18T08:17:51.073Z,98745.23
2023-04-18T08:20:18.353Z,98742.65
2023-04-18T08:23:02.375Z,98741.70
2023-04-18T08:25:33.041Z,98743.88
2023-04-18T08:49:42.903Z,98749.76
2023-04-18T08:52:12.469Z,98752.00
2023-04-18T08:54:47.253Z,98749.20
2023-04-18T08:57:27.004Z,98747.30
2023-04-18T09:00:16.649Z,98745.77
2023-04-18T09:03:08.615Z,98744.77
2023-04-18T09:05:38.206Z,98745.23
2023-04-18T09:08:22.045Z,98747.55
2023-04-18T09:10:50.726Z,98745.86
2023-04-18T09:13:37.535Z,98743.71
2023-04-18T09:16:06.422Z,98741.80
2023-04-18T09:18:35.630Z,98744.69
2023-04-18T09:21:19.548Z,98742.20
2023-04-18T09:23:48.250Z,98744.98
2023-04-18T09:26:33.212Z,98744.07
2023-04-18T09:29:03.381Z,98743.36
2023-04-18T09:31:35.884Z,98743.02
2023-04-18T09:34:05.302Z,98744.17
2023-04-18T09:36:45.450Z,98745.09
2023-04-18T09:39:32.005Z,98742.16
2023-04-18T09:42:04.391Z,98740.98
2023-04-18T09:44:33.607Z,98740.11
2023-04-18T09:47:21.978Z,98738.27
2023-04-18T09:49:52.807Z,98739.94
2023-04-18T09:52:26.334Z,98741.11
2023-04-18T09:54:58.769Z,98737.75
2023-04-18T09:57:29.020Z,98733.52
2023-04-18T10:00:31.371Z,98738.48
2023-04-18T10:03:08.309Z,98733.67
2023-04-18T10:06:02.773Z,98732.77
2023-04-18T10:08:33.267Z,98729.42
2023-04-18T10:11:01.620Z,98731.17
2023-04-18T10:13:29.970Z,98729.87
2023-04-18T10:16:00.719Z,98730.26
2023-04-18T10:18:29.863Z,98727.67
2023-04-18T10:21:03.589Z,98721.04
2023-04-18T10:23:32.463Z,98719.95
2023-04-18T10:26:01.717Z,98715.75
2023-04-18T10:34:46.557Z,98707.89
2023-04-18T10:37:13.764Z,98707.48
2023-04-18T10:39:53.261Z,98710.14
2023-04-18T10:42:49.471Z,98709.58
2023-04-18T10:45:30.708Z,98711.40
2023-04-18T10:48:23.434Z,98709.80
2023-04-18T10:51:33.217Z,98713.05
2023-04-18T10:54:00.374Z,98715.87
2023-04-18T10:56:28.653Z,98713.10
2023-04-18T10:58:55.905Z,98712.55
2023-04-18T11:01:31.028Z,98711.95
2023-04-18T11:03:59.321Z,98714.55
2023-04-18T11:06:27.310Z,98710.31
2023-04-18T11:09:14.403Z,98709.45
2023-04-18T11:11:45.377Z,98707.30
2023-04-18T11:14:12.669Z,98705.70
2023-04-18T11:16:40.543Z,98705.10
2023-04-18T11:19:41.016Z,98703.14
2023-04-18T11:22:28.492Z,98704.10
2023-04-18T11:24:59.969Z,98703.14
2023-04-18T11:27:28.681Z,98699.62
2023-04-18T11:30:15.753Z,98697.60
2023-04-18T11:32:43.621Z,98697.67
2023-04-18T11:35:12.453Z,98696.11
2023-04-18T11:37:40.615Z,98692.79
2023-04-18T11:40:11.318Z,98687.29
2023-04-18T11:42:42.865Z,98684.36
2023-04-18T11:45:13.218Z,98681.04
2023-04-18T11:47:42.531Z,98676.19
2023-04-18T11:50:11.167Z,98672.65
2023-04-18T11:52:40.525Z,98679.27
2023-04-18T11:55:14.104Z,98676.31
2023-04-18T11:57:41.307Z,98673.23
2023-04-18T12:00:11.604Z,98675.33
2023-04-18T12:02:44.272Z,98672.26
2023-04-18T12:05:13.999Z,98670.46
2023-04-18T12:34:56.967Z,98648.42
2023-04-18T12:37:25.963Z,98644.90
2023-04-18T12:39:54.661Z,98641.25
2023-04-18T12:42:23.549Z,98643.72
2023-04-18T12:44:56.022Z,98642.38
2023-04-18T12:47:27.993Z,98643.99
2023-04-18T12:49:57.720Z,98648.08
2023-04-18T12:52:25.964Z,98650.17
2023-04-18T12:54:56.457Z,98655.46
2023-04-18T12:57:27.143Z,98657.64
2023-04-18T12:59:56.178Z,98658.31
2023-04-18T13:02:24.863Z,98655.52
2023-04-18T13:04:53.680Z,98659.77
2023-04-18T13:07:22.165Z,98664.21
2023-04-18T13:28:52.859Z,98676.88
2023-04-18T13:31:21.399Z,98675.77
2023-04-18T13:33:52.625Z,98681.29
2023-04-18T13:36:22.460Z,98681.89
2023-04-18T13:38:55.289Z,98684.12
2023-04-18T13:41:24.564Z,98681.51
2023-04-18T13:43:53.526Z,98682.06
2023-04-18T13:46:23.549Z,98680.45
2023-04-18T13:48:51.936Z,98678.78
2023-04-18T13:51:20.640Z,98678.60
2023-04-18T13:53:49.725Z,98677.55
2023-04-18T13:56:18.800Z,98678.29
2023-04-18T13:58:47.138Z,98680.63
2023-04-18T14:01:16.986Z,98676.70
2023-04-18T14:03:47.173Z,98678.63
2023-04-18T14:06:15.952Z,98675.23
2023-04-18T14:08:44.471Z,98673.85
2023-04-18T14:11:16.450Z,98675.01
2023-04-18T14:13:44.820Z,98672.80
2023-04-18T14:16:13.399Z,98676.77
2023-04-18T14:18:42.130Z,98675.16
2023-04-18T14:21:10.873Z,98671.11
2023-04-18T14:23:57.155Z,98671.77
2023-04-18T14:26:26.011Z,98671.33
2023-04-18T14:28:54.323Z,98665.86
2023-04-18T14:31:23.181Z,98667.39
2023-04-18T14:33:54.411Z,98665.08
2023-04-18T14:36:22.811Z,98664.94
2023-04-18T14:38:51.429Z,98662.67
2023-04-18T14:41:19.606Z,98661.81
2023-04-18T14:43:47.924Z,98657.92
2023-04-18T14:46:17.090Z,98658.89
2023-04-18T14:48:49.079Z,98658.70
2023-04-18T14:51:17.917Z,98662.15
2023-04-18T14:53:49.153Z,98657.89
2023-04-18T14:56:21.284Z,98656.42
2023-04-18T14:58:49.630Z,98657.02
2023-04-18T15:01:17.902Z,98655.25
2023-04-18T15:03:46.480Z,98654.59
2023-04-18T15:06:15.038Z,98657.81
2023-04-18T15:08:44.946Z,98657.82
2023-04-18T15:11:13.853Z,98658.37
2023-04-18T15:13:52.710Z,98655.52
2023-04-18T15:17:15.484Z,98660.40
2023-04-18T15:19:46.647Z,98661.83
2023-04-18T15:22:17.199Z,98658.91
2023-04-18T15:24:51.735Z,98659.73
2023-04-18T15:27:20.349Z,98658.32
2023-04-18T15:29:48.713Z,98654.81
2023-04-18T15:32:17.266Z,98654.62
2023-04-18T15:34:46.161Z,98651.25
2023-04-18T15:37:14.910Z,98653.94
2023-04-18T15:39:43.441Z,98651.88
2023-04-18T15:42:11.907Z,98649.39
2023-04-18T15:44:43.173Z,98647.55
2023-04-18T15:47:11.680Z,98646.23
2023-04-18T15:49:40.251Z,98643.69
2023-04-18T15:52:08.799Z,98645.14
2023-04-18T15:54:54.165Z,98643.98
2023-04-18T15:57:22.486Z,98639.85
2023-04-18T15:59:50.822Z,98644.71
2023-04-18T16:02:19.331Z,98637.95
2023-04-18T16:04:47.859Z,98639.27
2023-04-18T16:07:33.656Z,98637.17
2023-04-18T16:10:06.501Z,98633.05
2023-04-18T16:12:35.030Z,98635.99
2023-04-18T16:15:08.761Z,98633.96
2023-04-18T16:17:37.759Z,98634.12
2023-04-18T16:20:08.607Z,98632.91
2023-04-18T16:22:37.438Z,98629.13
2023-04-18T16:25:06.962Z,98629.38
2023-04-18T16:27:35.741Z,98629.75
2023-04-18T16:30:05.309Z,98625.95
2023-04-18T16:32:33.848Z,98627.16
2023-04-18T16:35:08.053Z,98622.20
2023-04-18T16:37:40.421Z,98622.21
2023-04-18T16:40:12.897Z,98623.34
2023-04-18T16:42:42.092Z,98624.55
2023-04-18T16:45:10.748Z,98623.02
2023-04-18T16:47:39.839Z,98620.17
2023-04-18T16:50:09.221Z,98618.56
2023-04-18T16:52:37.960Z,98624.55
2023-04-18T16:55:06.848Z,98623.36
2023-04-18T16:57:35.146Z,98622.36
2023-04-18T17:00:05.089Z,98623.04
2023-04-18T17:02:35.340Z,98624.23
2023-04-18T17:05:04.291Z,98624.03
2023-04-18T17:07:32.720Z,98621.19
2023-04-18T17:10:02.247Z,98620.73
2023-04-18T17:12:31.652Z,98618.42
2023-04-18T17:14:59.789Z,98621.35
2023-04-18T17:17:28.345Z,98625.02
2023-04-18T17:19:58.824Z,98624.83
2023-04-18T17:22:27.157Z,98624.27
2023-04-18T17:24:58.275Z,98626.07
2023-04-18T17:27:26.623Z,98626.74
2023-04-18T17:29:57.179Z,98634.92
2023-04-18T17:32:25.488Z,98634.20
2023-04-18T17:34:54.212Z,98636.65
2023-04-18T17:37:23.023Z,98637.94
2023-04-18T17:39:51.484Z,98638.36
2023-04-18T17:42:21.423Z,98640.24
2023-04-18T17:44:49.980Z,98641.77
2023-04-18T17:47:18.437Z,98642.31
2023-04-18T17:49:46.866Z,98635.34
2023-04-18T17:52:15.309Z,98634.89
2023-04-18T17:54:44.119Z,98635.45
2023-04-18T17:57:13.103Z,98635.50
2023-04-18T17:59:41.403Z,98634.97
2023-04-18T18:02:11.791Z,98635.15
2023-04-18T18:04:40.518Z,98635.48
2023-04-18T18:07:12.138Z,98630.36
2023-04-18T18:09:45.749Z,98626.60
2023-04-18T18:12:14.236Z,98626.22
2023-04-18T18:14:45.705Z,98627.66
2023-04-18T18:17:14.252Z,98623.64
2023-04-18T18:19:45.604Z,98619.20
2023-04-18T18:22:13.984Z,98616.73
2023-04-18T18:24:42.472Z,98614.91
2023-04-18T18:27:11.045Z,98613.29
2023-04-18T18:29:39.519Z,98612.76
2023-04-18T18:32:07.903Z,98613.52
2023-04-18T18:34:36.481Z,98610.88
2023-04-18T18:37:04.619Z,98607.06
2023-04-18T18:39:33.034Z,98605.77
2023-04-18T18:42:02.465Z,98599.66
2023-04-18T18:44:30.708Z,98595.64
2023-04-18T18:47:00.045Z,98592.17
2023-04-18T18:49:28.632Z,98587.75
2023-04-18T18:51:57.293Z,98586.11
2023-04-18T18:54:26.207Z,98581.14
2023-04-18T18:56:54.876Z,98576.48
2023-04-18T18:59:23.192Z,98570.73
2023-04-18T19:01:51.854Z,98571.18
2023-04-18T19:04:20.671Z,98564.48
2023-04-18T19:06:49.003Z,98561.63
2023-04-18T19:09:17.664Z,98559.86
2023-04-18T19:11:49.190Z,98557.52
2023-04-18T19:14:17.534Z,98558.33
2023-04-18T20:15:45.456Z,98500.32
2023-04-18T23:01:29.256Z,98380.36
